Time;durP1;ratioP1;P1;durP2;ratioP2;P2;SDS_P1;SDS_P2;PMS_P1;PMS_P2;Temp;Humidity;BMP_temperature;BMP_pressure;BME280_temperature;BME280_humidity;BME280_pressure;Samples;Min_cycle;Max_cycle;Signal;HPM_P1;HPM_P2
2023/09/29 00:01:14;;;;;;;8.47;4.93;;;;;;;;;;5095703;28;20204;-50
2023/09/29 00:03:40;;;;;;;7.20;4.43;;;;;;;;;;5093681;28;20521;-49
2023/09/29 00:06:07;;;;;;;8.10;4.33;;;;;;;;;;5094171;28;20544;-47
2023/09/29 00:08:34;;;;;;;8.37;4.57;;;;;;;;;;5093524;28;20605;-47
2023/09/29 00:11:01;;;;;;;6.73;4.03;;;;;;;;;;5091674;28;20412;-48
2023/09/29 00:13:27;;;;;;;6.70;4.10;;;;;;;;;;5090635;28;20174;-48
2023/09/29 00:15:53;;;;;;;6.37;3.93;;;;;;;;;;5091820;28;20431;-50
2023/09/29 00:18:19;;;;;;;8.93;4.33;;;;;;;;;;5091965;28;20800;-48
2023/09/29 00:20:45;;;;;;;5.80;4.80;;;;;;;;;;5094526;28;20183;-51
2023/09/29 00:23:12;;;;;;;7.27;5.07;;;;;;;;;;5092761;28;20168;-47
2023/09/29 00:25:38;;;;;;;9.07;4.33;;;;;;;;;;5093540;28;20188;-47
2023/09/29 00:28:05;;;;;;;7.13;4.03;;;;;;;;;;5093981;28;20242;-47
2023/09/29 00:30:31;;;;;;;12.40;5.53;;;;;;;;;;5094526;28;20199;-48
2023/09/29 00:32:57;;;;;;;12.50;4.77;;;;;;;;;;5093493;28;20578;-47
2023/09/29 00:35:24;;;;;;;6.80;4.33;;;;;;;;;;5093933;28;20267;-48
2023/09/29 00:38:00;;;;;;;6.10;4.57;;;;;;;;;;5094589;28;20576;-50
2023/09/29 00:40:26;;;;;;;7.20;4.40;;;;;;;;;;5093033;28;20485;-47
2023/09/29 00:42:53;;;;;;;7.90;4.47;;;;;;;;;;5094135;28;20287;-47
2023/09/29 00:45:23;;;;;;;5.90;4.33;;;;;;;;;;5093618;28;20168;-52
2023/09/29 00:47:51;;;;;;;9.97;4.70;;;;;;;;;;5094348;28;20168;-51
2023/09/29 00:50:19;;;;;;;5.97;4.20;;;;;;;;;;5094469;28;20628;-49
2023/09/29 00:52:46;;;;;;;7.03;4.77;;;;;;;;;;5093450;28;20460;-47
2023/09/29 00:55:16;;;;;;;6.43;4.50;;;;;;;;;;5094573;28;20463;-50
2023/09/29 00:57:42;;;;;;;5.70;4.37;;;;;;;;;;5092968;28;20253;-47
2023/09/29 01:02:55;;;;;;;9.80;4.80;;;;;;;;;;5091934;28;20213;-49
2023/09/29 01:05:21;;;;;;;10.87;4.70;;;;;;;;;;5092851;28;20172;-48
2023/09/29 01:07:47;;;;;;;9.17;4.70;;;;;;;;;;5090195;28;20186;-48
2023/09/29 01:10:13;;;;;;;5.27;3.90;;;;;;;;;;5089740;28;20257;-51
2023/09/29 01:12:40;;;;;;;7.43;4.40;;;;;;;;;;5093398;28;20165;-47
2023/09/29 01:15:06;;;;;;;6.67;4.10;;;;;;;;;;5092587;28;20539;-48
2023/09/29 01:17:32;;;;;;;6.63;4.30;;;;;;;;;;5094283;28;20195;-47
2023/09/29 01:19:58;;;;;;;9.83;5.27;;;;;;;;;;5091520;28;20225;-49
2023/09/29 01:22:26;;;;;;;8.33;5.03;;;;;;;;;;5091146;28;20222;-47
2023/09/29 01:24:51;;;;;;;8.23;4.87;;;;;;;;;;5090645;28;20183;-49
2023/09/29 01:27:17;;;;;;;9.40;5.10;;;;;;;;;;5090827;28;20254;-47
2023/09/29 01:29:43;;;;;;;8.17;4.97;;;;;;;;;;5088378;28;20220;-48
2023/09/29 01:32:13;;;;;;;7.53;5.00;;;;;;;;;;5089919;28;20175;-47
2023/09/29 01:34:40;;;;;;;8.07;4.50;;;;;;;;;;5091616;28;20206;-47
2023/09/29 01:37:07;;;;;;;6.60;4.60;;;;;;;;;;5090552;28;20263;-50
2023/09/29 01:39:34;;;;;;;8.30;5.10;;;;;;;;;;5089475;28;20176;-50
2023/09/29 01:42:00;;;;;;;9.57;5.10;;;;;;;;;;5090894;28;20180;-48
2023/09/29 01:44:26;;;;;;;7.13;4.47;;;;;;;;;;5091636;28;20179;-48
2023/09/29 01:46:53;;;;;;;6.63;4.60;;;;;;;;;;5090889;28;20403;-47
2023/09/29 01:49:20;;;;;;;6.97;4.10;;;;;;;;;;5091803;28;20302;-47
2023/09/29 01:51:48;;;;;;;5.43;4.43;;;;;;;;;;5091501;28;20466;-48
2023/09/29 01:54:14;;;;;;;7.07;4.30;;;;;;;;;;5092149;28;20402;-48
2023/09/29 01:56:41;;;;;;;7.63;4.60;;;;;;;;;;5092809;28;20168;-47
2023/09/29 01:59:07;;;;;;;7.03;4.40;;;;;;;;;;5091972;28;20539;-47
2023/09/29 02:01:35;;;;;;;8.43;4.67;;;;;;;;;;5093167;28;20551;-51
2023/09/29 02:04:01;;;;;;;6.87;4.20;;;;;;;;;;5090021;28;20208;-48
2023/09/29 02:06:27;;;;;;;7.70;4.90;;;;;;;;;;5090312;28;20341;-48
2023/09/29 02:08:56;;;;;;;7.40;5.03;;;;;;;;;;5089204;28;20615;-50
2023/09/29 02:11:22;;;;;;;5.57;4.63;;;;;;;;;;5089330;28;20187;-50
2023/09/29 02:13:48;;;;;;;9.73;5.53;;;;;;;;;;5090865;28;20168;-50
2023/09/29 02:16:15;;;;;;;11.27;4.87;;;;;;;;;;5092044;28;20258;-52
2023/09/29 02:18:46;;;;;;;7.27;4.37;;;;;;;;;;5092699;28;20175;-47
2023/09/29 02:21:21;;;;;;;5.10;4.10;;;;;;;;;;5092167;28;20235;-47
2023/09/29 02:23:48;;;;;;;6.70;4.30;;;;;;;;;;5091664;28;20613;-50
2023/09/29 02:26:15;;;;;;;5.40;4.50;;;;;;;;;;5091055;28;20292;-47
2023/09/29 02:28:41;;;;;;;5.57;4.70;;;;;;;;;;5090394;28;20234;-51
2023/09/29 02:31:14;;;;;;;10.57;4.80;;;;;;;;;;5089715;28;20266;-47
2023/09/29 02:33:41;;;;;;;8.83;5.90;;;;;;;;;;5090833;28;20244;-49
2023/09/29 02:36:07;;;;;;;9.13;4.83;;;;;;;;;;5090126;28;20172;-52
2023/09/29 02:38:33;;;;;;;7.67;4.70;;;;;;;;;;5091655;28;20172;-47
2023/09/29 02:40:59;;;;;;;5.60;4.40;;;;;;;;;;5089899;28;20175;-48
2023/09/29 02:43:30;;;;;;;6.37;5.40;;;;;;;;;;5090348;28;20206;-50
2023/09/29 02:45:56;;;;;;;8.53;5.03;;;;;;;;;;5090419;28;20175;-48
2023/09/29 02:48:24;;;;;;;6.40;4.27;;;;;;;;;;5089212;28;20227;-47
2023/09/29 02:50:50;;;;;;;9.13;5.30;;;;;;;;;;5090603;28;20259;-48
2023/09/29 02:53:16;;;;;;;8.37;4.77;;;;;;;;;;5086912;28;20282;-49
2023/09/29 02:55:45;;;;;;;8.90;5.17;;;;;;;;;;5087444;28;20187;-50
2023/09/29 02:58:11;;;;;;;6.07;4.10;;;;;;;;;;5088672;28;20223;-48
2023/09/29 03:00:38;;;;;;;6.73;4.63;;;;;;;;;;5089316;28;20195;-49
2023/09/29 03:03:04;;;;;;;6.90;5.20;;;;;;;;;;5090086;28;20365;-49
2023/09/29 03:05:30;;;;;;;6.37;4.70;;;;;;;;;;5090450;28;20432;-49
2023/09/29 03:07:56;;;;;;;8.27;4.83;;;;;;;;;;5088695;28;20184;-49
2023/09/29 03:10:25;;;;;;;6.03;5.20;;;;;;;;;;5090351;28;20296;-47
2023/09/29 03:12:53;;;;;;;7.87;5.67;;;;;;;;;;5094675;28;20327;-48
2023/09/29 03:15:21;;;;;;;11.00;4.87;;;;;;;;;;5092216;28;20172;-46
2023/09/29 03:17:47;;;;;;;6.77;4.87;;;;;;;;;;5093396;28;20563;-50
2023/09/29 03:20:14;;;;;;;5.77;4.80;;;;;;;;;;5092609;28;20168;-49
2023/09/29 03:22:41;;;;;;;8.77;5.70;;;;;;;;;;5094285;28;20165;-50
2023/09/29 03:25:09;;;;;;;10.33;5.27;;;;;;;;;;5093041;28;20172;-49
2023/09/29 03:27:35;;;;;;;9.90;5.70;;;;;;;;;;5093434;28;20180;-51
2023/09/29 03:30:02;;;;;;;9.43;5.23;;;;;;;;;;5094057;28;20453;-50
2023/09/29 03:32:29;;;;;;;11.73;5.90;;;;;;;;;;5095409;28;20160;-48
2023/09/29 03:34:55;;;;;;;8.40;5.43;;;;;;;;;;5093062;28;20165;-48
2023/09/29 03:37:23;;;;;;;10.17;5.57;;;;;;;;;;5092473;28;20284;-49
2023/09/29 03:42:52;;;;;;;7.60;5.20;;;;;;;;;;5094839;28;20601;-50
2023/09/29 03:45:18;;;;;;;9.57;6.17;;;;;;;;;;5094175;28;20586;-49
2023/09/29 03:47:46;;;;;;;5.70;4.90;;;;;;;;;;5093638;28;20258;-48
2023/09/29 03:50:12;;;;;;;6.93;5.03;;;;;;;;;;5093764;28;20254;-56
2023/09/29 03:52:39;;;;;;;6.77;5.33;;;;;;;;;;5092780;28;20268;-47
2023/09/29 03:55:06;;;;;;;10.27;5.43;;;;;;;;;;5092267;28;20180;-47
2023/09/29 03:57:34;;;;;;;8.20;5.53;;;;;;;;;;5093631;28;20318;-48
2023/09/29 04:00:00;;;;;;;6.90;5.87;;;;;;;;;;5092937;28;20353;-49
2023/09/29 04:02:26;;;;;;;7.40;5.57;;;;;;;;;;5091433;28;20171;-47
2023/09/29 04:04:52;;;;;;;7.43;5.27;;;;;;;;;;5093190;28;20178;-51
2023/09/29 04:07:18;;;;;;;10.77;6.67;;;;;;;;;;5092106;28;20180;-48
2023/09/29 04:09:44;;;;;;;12.70;7.00;;;;;;;;;;5091309;28;20270;-50
2023/09/29 04:12:11;;;;;;;9.03;6.13;;;;;;;;;;5093569;28;20578;-50
2023/09/29 04:14:37;;;;;;;9.20;6.17;;;;;;;;;;5092403;28;20524;-47
2023/09/29 04:17:04;;;;;;;10.83;5.40;;;;;;;;;;5093045;28;20175;-49
2023/09/29 04:19:30;;;;;;;7.70;5.47;;;;;;;;;;5090737;28;20183;-47
2023/09/29 04:21:57;;;;;;;6.97;5.47;;;;;;;;;;5088795;28;20168;-51
2023/09/29 04:24:23;;;;;;;9.57;5.83;;;;;;;;;;5090168;28;20174;-51
2023/09/29 04:26:49;;;;;;;6.93;5.07;;;;;;;;;;5089705;28;20176;-48
2023/09/29 04:29:15;;;;;;;8.47;5.97;;;;;;;;;;5088611;28;20462;-49
2023/09/29 04:31:41;;;;;;;9.20;6.03;;;;;;;;;;5088922;28;20336;-50
2023/09/29 04:34:07;;;;;;;7.87;5.50;;;;;;;;;;5088539;28;20286;-48
2023/09/29 04:36:33;;;;;;;7.93;5.80;;;;;;;;;;5091136;28;20422;-48
2023/09/29 04:38:59;;;;;;;6.93;5.60;;;;;;;;;;5091594;28;20184;-46
2023/09/29 04:41:25;;;;;;;9.00;6.37;;;;;;;;;;5091513;28;20480;-48
2023/09/29 04:43:51;;;;;;;8.80;6.03;;;;;;;;;;5089586;28;20187;-47
2023/09/29 04:46:17;;;;;;;7.93;6.03;;;;;;;;;;5089580;28;20172;-46
2023/09/29 04:48:43;;;;;;;8.43;6.30;;;;;;;;;;5088188;28;20199;-47
2023/09/29 04:51:10;;;;;;;9.23;6.47;;;;;;;;;;5087427;28;20183;-46
2023/09/29 04:53:36;;;;;;;7.50;6.40;;;;;;;;;;5087075;28;20185;-47
2023/09/29 04:56:02;;;;;;;9.03;6.60;;;;;;;;;;5088186;28;20175;-47
2023/09/29 04:58:29;;;;;;;10.07;6.03;;;;;;;;;;5088316;28;20587;-46
2023/09/29 05:00:55;;;;;;;8.80;6.80;;;;;;;;;;5087852;28;20415;-47
2023/09/29 05:03:21;;;;;;;7.30;6.00;;;;;;;;;;5087556;28;20172;-47
2023/09/29 05:05:48;;;;;;;12.77;7.07;;;;;;;;;;5083998;28;20299;-46
2023/09/29 05:08:15;;;;;;;11.43;5.77;;;;;;;;;;5085164;28;20270;-49
2023/09/29 05:10:41;;;;;;;7.80;6.80;;;;;;;;;;5086658;28;20208;-47
2023/09/29 05:13:07;;;;;;;8.13;5.87;;;;;;;;;;5084619;28;20164;-49
2023/09/29 05:15:36;;;;;;;8.07;6.23;;;;;;;;;;5086148;28;20362;-47
2023/09/29 05:18:02;;;;;;;8.40;5.67;;;;;;;;;;5086597;28;20194;-47
2023/09/29 05:20:28;;;;;;;7.73;6.07;;;;;;;;;;5087019;28;20178;-47
2023/09/29 05:22:54;;;;;;;11.63;6.17;;;;;;;;;;5083733;28;20183;-46
2023/09/29 05:25:20;;;;;;;10.60;6.87;;;;;;;;;;5082667;28;20208;-48
2023/09/29 05:27:46;;;;;;;10.73;6.90;;;;;;;;;;5084264;28;20224;-48
2023/09/29 05:30:12;;;;;;;8.47;6.33;;;;;;;;;;5084465;28;20409;-48
2023/09/29 05:32:39;;;;;;;8.73;6.77;;;;;;;;;;5083933;28;20278;-46
2023/09/29 05:35:05;;;;;;;9.53;6.63;;;;;;;;;;5084393;28;20255;-49
2023/09/29 05:37:31;;;;;;;8.20;6.90;;;;;;;;;;5085491;28;20168;-47
2023/09/29 05:40:02;;;;;;;9.57;6.93;;;;;;;;;;5086107;28;20179;-48
2023/09/29 05:42:28;;;;;;;11.07;7.47;;;;;;;;;;5082156;28;20176;-48
2023/09/29 05:44:54;;;;;;;10.50;6.67;;;;;;;;;;5082780;28;20176;-47
2023/09/29 05:47:20;;;;;;;9.70;7.00;;;;;;;;;;5082506;28;20229;-47
2023/09/29 05:49:46;;;;;;;8.07;6.80;;;;;;;;;;5081809;28;20221;-50
2023/09/29 05:52:12;;;;;;;9.47;6.60;;;;;;;;;;5082461;28;20606;-49
2023/09/29 05:54:38;;;;;;;9.23;6.37;;;;;;;;;;5081504;28;20311;-47
2023/09/29 05:57:04;;;;;;;10.27;7.33;;;;;;;;;;5081562;28;20430;-48
2023/09/29 05:59:30;;;;;;;9.13;6.97;;;;;;;;;;5080475;28;20432;-47
2023/09/29 06:01:57;;;;;;;8.30;6.47;;;;;;;;;;5081554;28;20366;-48
2023/09/29 06:04:23;;;;;;;9.37;7.63;;;;;;;;;;5083169;28;20175;-48
2023/09/29 06:06:49;;;;;;;12.80;7.37;;;;;;;;;;5083125;28;20181;-47
2023/09/29 06:09:15;;;;;;;10.20;7.80;;;;;;;;;;5081779;28;20206;-47
2023/09/29 06:11:41;;;;;;;10.97;6.47;;;;;;;;;;5087117;28;20168;-48
2023/09/29 06:14:07;;;;;;;12.23;7.07;;;;;;;;;;5087922;28;20172;-50
2023/09/29 06:16:33;;;;;;;10.47;6.90;;;;;;;;;;5088982;28;20728;-49
2023/09/29 06:18:59;;;;;;;10.00;6.40;;;;;;;;;;5089053;28;20567;-46
2023/09/29 06:21:28;;;;;;;11.27;7.23;;;;;;;;;;5082284;28;20374;-46
2023/09/29 06:23:54;;;;;;;8.47;7.20;;;;;;;;;;5081131;28;20180;-50
2023/09/29 06:26:20;;;;;;;10.37;7.17;;;;;;;;;;5082768;28;20568;-47
2023/09/29 06:28:45;;;;;;;9.20;6.17;;;;;;;;;;5083835;28;20228;-48
2023/09/29 06:31:11;;;;;;;10.57;7.10;;;;;;;;;;5084246;28;20172;-48
2023/09/29 06:33:37;;;;;;;9.93;6.63;;;;;;;;;;5084399;28;20441;-47
2023/09/29 06:36:03;;;;;;;8.67;6.13;;;;;;;;;;5086812;28;20202;-52
2023/09/29 06:38:29;;;;;;;11.23;6.87;;;;;;;;;;5087671;28;20274;-46
2023/09/29 06:40:57;;;;;;;14.33;7.23;;;;;;;;;;5082382;28;20423;-47
2023/09/29 06:43:24;;;;;;;10.93;6.00;;;;;;;;;;5082202;28;20354;-48
2023/09/29 06:45:50;;;;;;;11.37;6.87;;;;;;;;;;5083519;28;20179;-48
2023/09/29 06:48:16;;;;;;;10.57;7.13;;;;;;;;;;5086721;28;20175;-52
2023/09/29 06:50:42;;;;;;;9.97;6.43;;;;;;;;;;5085120;28;20233;-46
2023/09/29 06:53:08;;;;;;;11.27;7.37;;;;;;;;;;5087608;28;20171;-47
2023/09/29 06:55:34;;;;;;;9.67;6.90;;;;;;;;;;5086708;28;20516;-50
2023/09/29 06:58:00;;;;;;;9.43;6.63;;;;;;;;;;5085122;28;20182;-49
2023/09/29 07:00:26;;;;;;;9.13;6.10;;;;;;;;;;5083084;28;20164;-50
2023/09/29 07:02:52;;;;;;;10.67;6.77;;;;;;;;;;5081213;28;20598;-49
2023/09/29 07:05:18;;;;;;;14.40;8.13;;;;;;;;;;5082252;28;20168;-48
2023/09/29 07:07:44;;;;;;;9.30;7.43;;;;;;;;;;5079919;28;20206;-49
2023/09/29 07:10:10;;;;;;;11.93;7.53;;;;;;;;;;5082426;28;20231;-48
2023/09/29 07:12:36;;;;;;;7.13;5.50;;;;;;;;;;5083907;28;20544;-50
2023/09/29 07:15:03;;;;;;;11.93;6.67;;;;;;;;;;5087195;28;20207;-49
2023/09/29 07:17:29;;;;;;;11.10;6.37;;;;;;;;;;5088695;28;21139;-49
2023/09/29 07:19:55;;;;;;;15.07;7.93;;;;;;;;;;5087087;28;20168;-46
2023/09/29 07:22:21;;;;;;;11.53;6.83;;;;;;;;;;5087946;28;20241;-49
2023/09/29 07:24:47;;;;;;;13.57;7.53;;;;;;;;;;5085795;28;20202;-46
2023/09/29 07:27:13;;;;;;;12.23;8.10;;;;;;;;;;5083749;28;20180;-48
2023/09/29 07:29:38;;;;;;;7.30;6.30;;;;;;;;;;5084676;28;20224;-48
2023/09/29 07:32:04;;;;;;;10.33;8.43;;;;;;;;;;5086641;28;20172;-50
2023/09/29 07:34:31;;;;;;;10.13;7.20;;;;;;;;;;5086961;28;20386;-47
2023/09/29 07:36:57;;;;;;;15.70;8.33;;;;;;;;;;5084731;28;20228;-47
2023/09/29 07:39:23;;;;;;;10.30;7.70;;;;;;;;;;5082742;28;20191;-48
2023/09/29 07:41:50;;;;;;;8.70;7.30;;;;;;;;;;5081375;28;20452;-47
2023/09/29 07:44:16;;;;;;;11.90;7.87;;;;;;;;;;5081847;28;20160;-50
2023/09/29 07:46:42;;;;;;;10.30;7.67;;;;;;;;;;5078129;28;20324;-46
2023/09/29 07:49:08;;;;;;;10.33;7.23;;;;;;;;;;5077137;28;20206;-49
2023/09/29 07:51:35;;;;;;;14.87;7.37;;;;;;;;;;5079847;28;20168;-46
2023/09/29 07:54:01;;;;;;;9.93;7.20;;;;;;;;;;5078966;28;20442;-46
2023/09/29 07:56:27;;;;;;;11.87;7.90;;;;;;;;;;5080825;28;20172;-47
2023/09/29 07:58:54;;;;;;;9.57;7.30;;;;;;;;;;5084847;28;20160;-48
2023/09/29 08:01:20;;;;;;;9.53;7.90;;;;;;;;;;5086249;28;20178;-47
2023/09/29 08:03:46;;;;;;;14.50;7.93;;;;;;;;;;5092421;28;20172;-48
2023/09/29 08:06:13;;;;;;;13.93;7.67;;;;;;;;;;5090798;28;20249;-52
2023/09/29 08:08:39;;;;;;;11.37;7.97;;;;;;;;;;5091410;28;20255;-48
2023/09/29 08:11:06;;;;;;;9.00;6.07;;;;;;;;;;5089962;28;20561;-49
2023/09/29 08:13:32;;;;;;;11.23;7.13;;;;;;;;;;5091559;28;20180;-49
2023/09/29 08:15:58;;;;;;;10.57;6.47;;;;;;;;;;5091293;28;20164;-49
2023/09/29 08:18:24;;;;;;;11.10;7.60;;;;;;;;;;5086432;28;20168;-50
2023/09/29 08:20:53;;;;;;;9.90;7.73;;;;;;;;;;5082051;28;20218;-46
2023/09/29 08:23:19;;;;;;;11.13;6.87;;;;;;;;;;5088510;28;20168;-48
2023/09/29 08:25:46;;;;;;;10.17;6.83;;;;;;;;;;5092582;28;20194;-52
2023/09/29 08:28:13;;;;;;;13.80;7.47;;;;;;;;;;5089801;28;20231;-52
2023/09/29 08:30:39;;;;;;;9.93;7.30;;;;;;;;;;5090767;28;20626;-48
2023/09/29 08:33:05;;;;;;;12.37;7.00;;;;;;;;;;5091448;28;20171;-50
2023/09/29 08:35:31;;;;;;;14.57;7.27;;;;;;;;;;5091764;28;20198;-51
2023/09/29 08:37:58;;;;;;;8.90;6.00;;;;;;;;;;5092517;28;20545;-51
2023/09/29 08:40:24;;;;;;;12.00;6.70;;;;;;;;;;5091688;28;20253;-49
2023/09/29 08:42:51;;;;;;;7.07;5.73;;;;;;;;;;5092344;28;20267;-46
2023/09/29 08:45:18;;;;;;;12.87;7.40;;;;;;;;;;5091628;28;20180;-48
2023/09/29 08:47:50;;;;;;;7.93;5.83;;;;;;;;;;5091992;28;20683;-47
2023/09/29 08:50:17;;;;;;;13.00;7.20;;;;;;;;;;5090854;28;20686;-47
2023/09/29 08:52:47;;;;;;;9.30;6.77;;;;;;;;;;5092981;28;20575;-49
2023/09/29 08:55:13;;;;;;;7.93;5.93;;;;;;;;;;5090868;28;20180;-46
2023/09/29 08:57:41;;;;;;;9.80;6.60;;;;;;;;;;5090752;28;20365;-48
2023/09/29 09:00:12;;;;;;;9.73;5.17;;;;;;;;;;5090536;28;20639;-49
2023/09/29 09:02:40;;;;;;;10.77;6.60;;;;;;;;;;5090554;28;20168;-49
2023/09/29 09:05:06;;;;;;;7.50;5.40;;;;;;;;;;5087768;28;20295;-53
2023/09/29 09:07:32;;;;;;;9.73;5.87;;;;;;;;;;5086756;28;20176;-47
2023/09/29 09:09:59;;;;;;;10.07;6.00;;;;;;;;;;5086538;28;20276;-51
2023/09/29 09:12:35;;;;;;;9.13;6.47;;;;;;;;;;5087246;28;20172;-52
2023/09/29 09:15:03;;;;;;;6.67;5.67;;;;;;;;;;5087919;28;20171;-47
2023/09/29 09:17:29;;;;;;;11.13;6.07;;;;;;;;;;5087303;28;20237;-49
2023/09/29 09:19:55;;;;;;;11.07;5.50;;;;;;;;;;5089020;28;20719;-52
2023/09/29 09:22:27;;;;;;;9.53;6.17;;;;;;;;;;5087604;28;20172;-49
2023/09/29 09:25:03;;;;;;;10.77;5.57;;;;;;;;;;5087853;28;20544;-51
2023/09/29 09:27:41;;;;;;;7.57;5.77;;;;;;;;;;5087602;28;20610;-47
2023/09/29 09:30:21;;;;;;;9.57;6.20;;;;;;;;;;5088068;28;20718;-49
2023/09/29 09:32:48;;;;;;;9.97;4.87;;;;;;;;;;5088378;28;20625;-49
2023/09/29 09:35:23;;;;;;;8.33;4.93;;;;;;;;;;5088527;28;20200;-49
2023/09/29 09:37:51;;;;;;;7.93;5.50;;;;;;;;;;5089979;28;20570;-50
2023/09/29 09:40:17;;;;;;;7.80;5.27;;;;;;;;;;5089462;28;20177;-47
2023/09/29 09:42:43;;;;;;;9.93;5.30;;;;;;;;;;5088142;28;20172;-49
2023/09/29 09:45:11;;;;;;;7.70;4.77;;;;;;;;;;5089050;28;20463;-51
2023/09/29 09:47:38;;;;;;;5.47;4.47;;;;;;;;;;5088061;28;20179;-48
2023/09/29 09:50:06;;;;;;;6.57;5.37;;;;;;;;;;5086733;28;20296;-51
2023/09/29 09:52:32;;;;;;;7.57;5.40;;;;;;;;;;5087077;28;20221;-47
2023/09/29 09:55:02;;;;;;;9.13;5.43;;;;;;;;;;5087651;28;20176;-48
2023/09/29 09:57:35;;;;;;;11.63;5.67;;;;;;;;;;5088873;28;20168;-48
2023/09/29 10:00:09;;;;;;;8.53;5.83;;;;;;;;;;5089542;28;20178;-48
2023/09/29 10:02:39;;;;;;;7.50;4.80;;;;;;;;;;5090696;28;20270;-49
2023/09/29 10:05:22;;;;;;;7.83;4.60;;;;;;;;;;5089029;28;20694;-49
2023/09/29 10:07:49;;;;;;;7.37;4.50;;;;;;;;;;5092169;28;20531;-52
2023/09/29 10:10:25;;;;;;;7.83;4.40;;;;;;;;;;5088651;28;20277;-52
2023/09/29 10:12:55;;;;;;;6.73;4.37;;;;;;;;;;5089675;28;20198;-48
2023/09/29 10:15:21;;;;;;;6.47;4.73;;;;;;;;;;5089651;28;20266;-53
2023/09/29 10:17:47;;;;;;;8.67;5.43;;;;;;;;;;5088934;28;20176;-49
2023/09/29 10:20:20;;;;;;;6.57;3.80;;;;;;;;;;5087617;28;20180;-53
2023/09/29 10:22:55;;;;;;;5.07;3.80;;;;;;;;;;5087189;28;20822;-47
2023/09/29 10:25:21;;;;;;;5.27;4.03;;;;;;;;;;5088613;28;20179;-49
2023/09/29 10:27:49;;;;;;;4.77;3.40;;;;;;;;;;5089983;28;20255;-49
2023/09/29 10:30:16;;;;;;;8.43;4.57;;;;;;;;;;5088786;28;20239;-51
2023/09/29 10:32:43;;;;;;;5.57;3.80;;;;;;;;;;5087342;28;20190;-47
2023/09/29 10:35:18;;;;;;;5.93;3.63;;;;;;;;;;5088863;28;20168;-46
2023/09/29 10:37:45;;;;;;;3.93;3.07;;;;;;;;;;5085630;28;20695;-48
2023/09/29 10:40:21;;;;;;;3.97;2.90;;;;;;;;;;5080730;28;20248;-49
2023/09/29 10:42:48;;;;;;;5.80;2.63;;;;;;;;;;5080884;28;20176;-49
2023/09/29 10:45:23;;;;;;;6.72;3.30;;;;;;;;;;5080229;28;20536;-47
2023/09/29 10:47:49;;;;;;;6.57;3.25;;;;;;;;;;5082809;28;20278;-51
2023/09/29 10:50:15;;;;;;;5.15;3.10;;;;;;;;;;5080578;28;20301;-49
2023/09/29 10:52:41;;;;;;;6.53;2.92;;;;;;;;;;5081686;28;20350;-48
2023/09/29 10:55:12;;;;;;;3.70;2.78;;;;;;;;;;5082425;28;20263;-47
2023/09/29 10:57:38;;;;;;;5.53;3.47;;;;;;;;;;5082391;28;20237;-48
2023/09/29 11:00:05;;;;;;;4.10;2.50;;;;;;;;;;5081915;28;20188;-47
2023/09/29 11:02:32;;;;;;;5.22;2.97;;;;;;;;;;5080145;28;20396;-49
2023/09/29 11:05:03;;;;;;;5.03;3.00;;;;;;;;;;5080210;28;20271;-50
2023/09/29 11:07:29;;;;;;;5.03;3.27;;;;;;;;;;5082380;28;20175;-50
2023/09/29 11:09:59;;;;;;;5.70;3.10;;;;;;;;;;5080639;28;20215;-47
2023/09/29 11:12:27;;;;;;;4.63;2.67;;;;;;;;;;5080819;28;20353;-47
2023/09/29 11:15:06;;;;;;;4.03;3.10;;;;;;;;;;5081812;28;20168;-47
2023/09/29 11:17:41;;;;;;;3.37;2.80;;;;;;;;;;5081267;28;20156;-49
2023/09/29 11:20:14;;;;;;;6.93;3.67;;;;;;;;;;5082602;28;20332;-50
2023/09/29 11:22:42;;;;;;;6.53;2.80;;;;;;;;;;5084520;28;20194;-47
2023/09/29 11:25:16;;;;;;;3.17;2.87;;;;;;;;;;5082761;28;20204;-48
2023/09/29 11:27:48;;;;;;;4.90;3.37;;;;;;;;;;5084607;28;20168;-47
2023/09/29 11:30:15;;;;;;;6.00;2.67;;;;;;;;;;5083396;28;20212;-46
2023/09/29 11:32:42;;;;;;;3.40;2.60;;;;;;;;;;5086977;28;20179;-47
2023/09/29 11:35:13;;;;;;;5.57;2.90;;;;;;;;;;5091516;28;20168;-49
2023/09/29 11:37:40;;;;;;;5.87;3.00;;;;;;;;;;5090959;28;20234;-48
2023/09/29 11:40:11;;;;;;;5.10;3.20;;;;;;;;;;5088665;28;20468;-47
2023/09/29 11:42:38;;;;;;;6.90;3.43;;;;;;;;;;5089998;28;20188;-52
2023/09/29 11:45:08;;;;;;;4.80;2.73;;;;;;;;;;5089276;28;20167;-49
2023/09/29 11:47:34;;;;;;;3.63;2.87;;;;;;;;;;5087890;28;20340;-49
2023/09/29 11:50:00;;;;;;;3.73;2.73;;;;;;;;;;5086074;28;20272;-49
2023/09/29 11:52:26;;;;;;;6.07;3.40;;;;;;;;;;5086165;28;20172;-50
2023/09/29 11:54:52;;;;;;;4.20;2.97;;;;;;;;;;5085961;28;20238;-47
2023/09/29 11:57:18;;;;;;;4.00;2.90;;;;;;;;;;5085618;28;20187;-48
2023/09/29 11:59:45;;;;;;;2.60;2.40;;;;;;;;;;5085865;28;20183;-47
2023/09/29 12:02:11;;;;;;;4.77;2.70;;;;;;;;;;5083561;28;20168;-48
2023/09/29 12:04:36;;;;;;;4.70;3.10;;;;;;;;;;5081929;28;20502;-48
2023/09/29 12:07:04;;;;;;;3.97;2.70;;;;;;;;;;5084878;28;20207;-50
2023/09/29 12:09:30;;;;;;;4.40;3.03;;;;;;;;;;5084492;28;20204;-52
2023/09/29 12:12:00;;;;;;;4.57;2.93;;;;;;;;;;5084124;28;20370;-48
2023/09/29 12:14:26;;;;;;;6.00;2.53;;;;;;;;;;5085399;28;20229;-49
2023/09/29 12:16:53;;;;;;;6.67;3.27;;;;;;;;;;5085952;28;20237;-48
2023/09/29 12:19:22;;;;;;;5.17;2.67;;;;;;;;;;5084544;28;20172;-50
2023/09/29 12:21:48;;;;;;;3.47;2.30;;;;;;;;;;5084567;28;20380;-49
2023/09/29 12:24:15;;;;;;;4.00;2.30;;;;;;;;;;5083791;28;20164;-47
2023/09/29 12:26:46;;;;;;;4.10;2.90;;;;;;;;;;5084141;28;20187;-52
2023/09/29 12:29:12;;;;;;;4.67;2.80;;;;;;;;;;5082271;28;20235;-49
2023/09/29 12:31:38;;;;;;;6.37;3.00;;;;;;;;;;5083477;28;20186;-47
2023/09/29 12:34:04;;;;;;;3.67;2.40;;;;;;;;;;5081967;28;20170;-50
2023/09/29 12:36:31;;;;;;;4.57;2.57;;;;;;;;;;5081571;28;20168;-50
2023/09/29 12:38:57;;;;;;;4.00;2.30;;;;;;;;;;5080905;28;20204;-48
2023/09/29 12:41:25;;;;;;;3.67;2.43;;;;;;;;;;5082409;28;20621;-47
2023/09/29 12:43:51;;;;;;;3.80;2.20;;;;;;;;;;5084158;28;20274;-48
2023/09/29 12:46:17;;;;;;;5.57;2.40;;;;;;;;;;5084290;28;20306;-47
2023/09/29 12:48:43;;;;;;;4.07;2.83;;;;;;;;;;5085757;28;20195;-50
2023/09/29 12:51:19;;;;;;;5.13;2.90;;;;;;;;;;5084963;28;20578;-50
2023/09/29 12:53:45;;;;;;;6.13;2.67;;;;;;;;;;5083989;28;20176;-49
2023/09/29 12:56:15;;;;;;;3.50;2.50;;;;;;;;;;5082646;28;20175;-50
2023/09/29 12:58:41;;;;;;;4.30;3.20;;;;;;;;;;5084607;28;20168;-51
2023/09/29 13:01:07;;;;;;;4.83;2.63;;;;;;;;;;5083188;28;20452;-47
2023/09/29 13:03:33;;;;;;;2.93;2.20;;;;;;;;;;5084522;28;20168;-51
2023/09/29 13:06:00;;;;;;;5.60;3.00;;;;;;;;;;5084921;28;20335;-46
2023/09/29 13:08:26;;;;;;;5.93;2.93;;;;;;;;;;5086316;28;20284;-47
2023/09/29 13:10:54;;;;;;;4.77;2.87;;;;;;;;;;5086706;28;20207;-48
2023/09/29 13:13:20;;;;;;;4.83;2.53;;;;;;;;;;5085767;28;20539;-48
2023/09/29 13:15:46;;;;;;;5.73;2.93;;;;;;;;;;5083440;28;20440;-53
2023/09/29 13:18:12;;;;;;;8.17;2.70;;;;;;;;;;5084423;28;20631;-49
2023/09/29 13:20:38;;;;;;;4.23;2.23;;;;;;;;;;5084563;28;20350;-49
2023/09/29 13:23:04;;;;;;;2.90;2.27;;;;;;;;;;5082006;28;20303;-54
2023/09/29 13:25:30;;;;;;;3.47;2.80;;;;;;;;;;5082448;28;20473;-47
2023/09/29 13:27:57;;;;;;;5.97;3.17;;;;;;;;;;5084194;28;20355;-50
2023/09/29 13:30:24;;;;;;;5.67;2.80;;;;;;;;;;5085744;28;20207;-47
2023/09/29 13:32:49;;;;;;;5.23;2.90;;;;;;;;;;5081792;28;20221;-49
2023/09/29 13:35:16;;;;;;;3.50;2.57;;;;;;;;;;5083678;28;20178;-48
2023/09/29 13:37:42;;;;;;;3.57;2.50;;;;;;;;;;5082704;28;20172;-51
2023/09/29 13:40:08;;;;;;;3.53;2.43;;;;;;;;;;5085758;28;20176;-46
2023/09/29 13:42:37;;;;;;;3.80;2.17;;;;;;;;;;5083230;28;20186;-53
2023/09/29 13:45:04;;;;;;;3.87;2.47;;;;;;;;;;5080706;28;20476;-48
2023/09/29 13:47:30;;;;;;;4.70;2.43;;;;;;;;;;5081523;28;20656;-48
2023/09/29 13:49:56;;;;;;;2.70;1.83;;;;;;;;;;5081719;28;20210;-49
2023/09/29 13:52:23;;;;;;;2.77;1.70;;;;;;;;;;5080276;28;20508;-47
2023/09/29 13:54:49;;;;;;;3.00;2.00;;;;;;;;;;5081026;28;20164;-47
2023/09/29 13:57:16;;;;;;;5.87;2.30;;;;;;;;;;5080736;28;20199;-51
2023/09/29 13:59:42;;;;;;;3.60;2.20;;;;;;;;;;5082539;28;20267;-47
2023/09/29 14:02:09;;;;;;;2.20;2.00;;;;;;;;;;5079861;28;20342;-48
2023/09/29 14:04:35;;;;;;;5.17;2.17;;;;;;;;;;5078936;28;20459;-49
2023/09/29 14:07:02;;;;;;;3.60;2.27;;;;;;;;;;5081882;28;20283;-49
2023/09/29 14:09:28;;;;;;;5.83;2.73;;;;;;;;;;5080699;28;20261;-47
2023/09/29 14:11:54;;;;;;;3.50;2.07;;;;;;;;;;5080033;28;20187;-47
2023/09/29 14:14:21;;;;;;;3.67;2.73;;;;;;;;;;5080921;28;20171;-49
2023/09/29 14:16:47;;;;;;;2.70;2.20;;;;;;;;;;5081172;28;20488;-47
2023/09/29 14:19:13;;;;;;;3.27;2.30;;;;;;;;;;5082020;28;20625;-50
2023/09/29 14:21:39;;;;;;;4.30;2.37;;;;;;;;;;5082848;28;20458;-50
2023/09/29 14:24:06;;;;;;;13.23;2.60;;;;;;;;;;5081822;28;20464;-47
2023/09/29 14:26:32;;;;;;;5.33;2.23;;;;;;;;;;5082105;28;20245;-49
2023/09/29 14:28:58;;;;;;;5.77;2.90;;;;;;;;;;5082046;28;20322;-47
2023/09/29 14:31:24;;;;;;;3.50;2.50;;;;;;;;;;5083699;28;20197;-49
2023/09/29 14:33:51;;;;;;;8.10;2.57;;;;;;;;;;5084647;28;20176;-47
2023/09/29 14:36:17;;;;;;;3.10;2.27;;;;;;;;;;5083129;28;20504;-48
2023/09/29 14:38:43;;;;;;;6.33;2.30;;;;;;;;;;5081526;28;20172;-47
2023/09/29 14:41:09;;;;;;;3.83;2.13;;;;;;;;;;5083042;28;20193;-47
2023/09/29 14:43:39;;;;;;;4.50;2.10;;;;;;;;;;5083610;28;20168;-47
2023/09/29 14:46:09;;;;;;;4.33;2.30;;;;;;;;;;5080091;28;20194;-48